Time;durP1;ratioP1;P1;durP2;ratioP2;P2;SDS_P1;SDS_P2;PMS_P1;PMS_P2;Temp;Humidity;BMP_temperature;BMP_pressure;BME280_temperature;BME280_humidity;BME280_pressure;Samples;Min_cycle;Max_cycle;Signal;HPM_P1;HPM_P2
2021/05/31 00:00:44;;;;;;;10.60;5.87;;;13.10;97.60;;;;;;5013189;28;20995;-71
2021/05/31 00:03:11;;;;;;;7.50;5.80;;;13.00;97.70;;;;;;5014065;28;20428;-71
2021/05/31 00:05:38;;;;;;;7.63;5.03;;;13.00;97.90;;;;;;5009594;28;20879;-71
2021/05/31 00:08:07;;;;;;;7.00;6.07;;;13.00;98.00;;;;;;5003313;28;20491;-71
2021/05/31 00:10:34;;;;;;;6.83;5.80;;;13.00;98.40;;;;;;4998113;28;20575;-71
2021/05/31 00:13:01;;;;;;;6.83;5.20;;;13.00;98.60;;;;;;5013722;28;20947;-71
2021/05/31 00:15:29;;;;;;;9.73;5.87;;;12.90;99.00;;;;;;5013114;28;20475;-71
2021/05/31 00:17:57;;;;;;;7.57;5.80;;;12.90;99.10;;;;;;5013162;28;20456;-71
2021/05/31 00:20:24;;;;;;;11.70;7.13;;;12.80;99.20;;;;;;5006623;28;20468;-71
2021/05/31 00:22:51;;;;;;;5.80;5.20;;;12.80;99.40;;;;;;4996320;28;20818;-71
2021/05/31 00:25:18;;;;;;;6.20;5.60;;;12.80;99.50;;;;;;5009553;28;20469;-71
2021/05/31 00:27:45;;;;;;;6.83;5.83;;;12.70;99.80;;;;;;5013176;28;20484;-71
2021/05/31 00:30:13;;;;;;;7.80;5.80;;;12.70;99.90;;;;;;5012775;28;20986;-71
2021/05/31 00:32:41;;;;;;;7.00;5.53;;;12.60;99.90;;;;;;5013595;28;20433;-71
2021/05/31 00:35:09;;;;;;;6.27;5.60;;;12.70;99.90;;;;;;5011360;28;20460;-71
2021/05/31 00:37:37;;;;;;;7.30;5.90;;;12.70;99.90;;;;;;4982168;28;20986;-71
2021/05/31 00:40:05;;;;;;;10.70;6.63;;;12.70;99.90;;;;;;5005916;28;20469;-71
2021/05/31 00:42:32;;;;;;;7.00;5.43;;;12.60;99.90;;;;;;5013038;28;20431;-71
2021/05/31 00:44:59;;;;;;;7.37;6.53;;;12.50;99.90;;;;;;5012538;28;20563;-71
2021/05/31 00:47:26;;;;;;;9.40;5.60;;;12.50;99.90;;;;;;5012669;28;20456;-71
2021/05/31 00:49:54;;;;;;;7.70;5.93;;;12.50;99.90;;;;;;5008486;28;20474;-71
2021/05/31 00:52:22;;;;;;;8.77;6.80;;;12.40;99.90;;;;;;4995503;28;20432;-71
2021/05/31 00:54:49;;;;;;;6.73;5.93;;;12.40;99.90;;;;;;5012065;28;20545;-71
2021/05/31 00:57:17;;;;;;;7.63;5.53;;;12.30;99.90;;;;;;4975439;28;20464;-71
2021/05/31 00:59:44;;;;;;;7.97;6.70;;;12.30;99.90;;;;;;5012778;28;20479;-71
2021/05/31 01:02:12;;;;;;;6.40;5.27;;;12.30;99.90;;;;;;5012718;28;20945;-71
2021/05/31 01:04:39;;;;;;;7.60;5.43;;;12.30;99.90;;;;;;5010867;28;20483;-71
2021/05/31 01:07:12;;;;;;;9.30;6.90;;;12.30;99.90;;;;;;4994954;28;20827;-71
2021/05/31 01:09:57;;;;;;;7.20;6.07;;;12.30;99.90;;;;;;4982169;28;20812;-71
2021/05/31 01:13:00;;;;;;;6.70;6.00;;;12.30;99.90;;;;;;4986082;28;20425;-71
2021/05/31 01:15:32;;;;;;;10.20;5.90;;;12.30;99.90;;;;;;5010663;28;21105;-71
2021/05/31 01:18:14;;;;;;;6.47;5.70;;;12.30;99.90;;;;;;5012273;28;20449;-71
2021/05/31 01:21:12;;;;;;;7.77;6.07;;;12.20;99.90;;;;;;5010346;28;20785;-71
2021/05/31 01:23:44;;;;;;;9.10;6.77;;;12.20;99.90;;;;;;4979146;28;20425;-71
2021/05/31 01:26:19;;;;;;;8.20;6.37;;;12.10;99.90;;;;;;5010884;28;20533;-71
2021/05/31 01:29:00;;;;;;;8.60;6.37;;;12.00;99.90;;;;;;5011198;28;20459;-71
2021/05/31 01:31:37;;;;;;;7.03;5.67;;;12.10;99.90;;;;;;5012393;28;20436;-71
2021/05/31 01:34:07;;;;;;;7.60;6.80;;;12.00;99.90;;;;;;5009976;28;20530;-71
2021/05/31 01:36:40;;;;;;;7.57;6.77;;;12.10;99.90;;;;;;4996363;28;20443;-71
2021/05/31 01:39:08;;;;;;;9.73;6.53;;;12.10;99.90;;;;;;5011456;28;20468;-71
2021/05/31 01:41:36;;;;;;;7.20;6.30;;;12.10;99.90;;;;;;5010634;28;20504;-71
2021/05/31 01:44:04;;;;;;;8.33;6.77;;;12.00;99.90;;;;;;4994063;28;20459;-71
2021/05/31 01:46:33;;;;;;;9.23;6.97;;;12.00;99.90;;;;;;5011886;28;20432;-71
2021/05/31 01:49:01;;;;;;;8.43;6.60;;;12.00;99.90;;;;;;5009737;28;20465;-71
2021/05/31 01:51:28;;;;;;;10.10;8.00;;;12.00;99.90;;;;;;5012255;28;20437;-71
2021/05/31 01:53:56;;;;;;;12.30;8.20;;;11.90;99.90;;;;;;4994143;28;20463;-71
2021/05/31 01:56:23;;;;;;;10.47;7.27;;;11.90;99.90;;;;;;5010010;28;20441;-71
2021/05/31 01:58:52;;;;;;;12.10;8.67;;;11.90;99.90;;;;;;4999875;28;20552;-71
2021/05/31 02:01:19;;;;;;;12.70;8.50;;;11.90;99.90;;;;;;5011904;28;20907;-71
2021/05/31 02:03:48;;;;;;;14.83;8.07;;;11.80;99.90;;;;;;5009914;28;20939;-71
2021/05/31 02:06:15;;;;;;;8.53;7.40;;;12.30;99.90;;;;;;4978061;28;20850;-71
2021/05/31 02:08:42;;;;;;;10.50;7.53;;;11.80;99.90;;;;;;5011068;28;20452;-71
2021/05/31 02:11:18;;;;;;;10.63;7.97;;;11.80;99.90;;;;;;5010033;28;20455;-71
2021/05/31 02:13:49;;;;;;;12.60;7.60;;;11.70;99.90;;;;;;5011318;28;20948;-71
2021/05/31 02:16:20;;;;;;;10.73;7.90;;;11.70;99.90;;;;;;5011512;28;20528;-71
2021/05/31 02:18:51;;;;;;;10.70;7.93;;;11.70;99.90;;;;;;5009456;28;20544;-71
2021/05/31 02:21:20;;;;;;;12.10;8.90;;;11.70;99.90;;;;;;5011744;28;20483;-73
2021/05/31 02:23:48;;;;;;;9.57;8.10;;;11.70;99.90;;;;;;5011152;28;20935;-71
2021/05/31 02:26:19;;;;;;;12.20;7.33;;;11.70;99.90;;;;;;4992625;28;20455;-73
2021/05/31 02:28:47;;;;;;;12.67;7.93;;;12.00;99.90;;;;;;5010575;28;20463;-73
2021/05/31 02:31:16;;;;;;;13.53;8.60;;;11.70;99.90;;;;;;4986755;28;20433;-73
2021/05/31 02:33:45;;;;;;;11.90;8.20;;;11.60;99.90;;;;;;5013980;28;20436;-73
2021/05/31 02:36:12;;;;;;;9.83;7.57;;;11.50;99.90;;;;;;5003057;28;20452;-73
2021/05/31 02:38:41;;;;;;;15.90;8.60;;;11.40;99.90;;;;;;5015050;28;20452;-73
2021/05/31 02:41:09;;;;;;;8.93;7.53;;;11.40;99.90;;;;;;5012462;28;20556;-73
2021/05/31 02:43:36;;;;;;;9.57;7.67;;;11.40;99.90;;;;;;4984511;28;20428;-73
2021/05/31 02:46:03;;;;;;;14.23;9.43;;;11.40;99.90;;;;;;5015366;28;21013;-73
2021/05/31 02:48:30;;;;;;;16.63;8.90;;;11.40;99.90;;;;;;5013424;28;20466;-73
2021/05/31 02:50:57;;;;;;;12.70;8.13;;;11.40;99.90;;;;;;4996312;28;20503;-73
2021/05/31 02:53:25;;;;;;;10.40;7.53;;;11.40;99.90;;;;;;5015153;28;20823;-73
2021/05/31 02:55:53;;;;;;;10.57;8.10;;;11.30;99.90;;;;;;5013019;28;20564;-73
2021/05/31 02:58:19;;;;;;;10.60;7.10;;;11.30;99.90;;;;;;4997343;28;20539;-73
2021/05/31 03:00:47;;;;;;;14.67;9.60;;;11.20;99.90;;;;;;5014215;28;20834;-73
2021/05/31 03:03:15;;;;;;;15.63;8.87;;;;;;;;;;5010038;28;20437;-73
2021/05/31 03:05:44;;;;;;;14.10;10.40;;;11.10;99.90;;;;;;5002074;28;20465;-73
2021/05/31 03:08:11;;;;;;;10.87;7.83;;;;;;;;;;5014246;28;20917;-73
2021/05/31 03:10:38;;;;;;;21.67;9.10;;;11.20;99.90;;;;;;5011983;28;20480;-73
2021/05/31 03:13:05;;;;;;;11.83;9.63;;;11.10;99.90;;;;;;5014718;28;20837;-73
2021/05/31 03:15:32;;;;;;;14.57;9.40;;;11.10;99.90;;;;;;5013854;28;20468;-72
2021/05/31 03:17:59;;;;;;;16.53;8.70;;;11.20;99.90;;;;;;4995397;28;20783;-73
2021/05/31 03:20:30;;;;;;;18.43;9.83;;;11.20;99.90;;;;;;4996270;28;20489;-73
2021/05/31 03:23:00;;;;;;;17.27;9.13;;;11.10;99.90;;;;;;4996957;28;20495;-73
2021/05/31 03:25:31;;;;;;;13.03;9.20;;;11.10;99.90;;;;;;4995344;28;20977;-73
2021/05/31 03:28:01;;;;;;;11.60;9.00;;;11.00;99.90;;;;;;4996643;28;20456;-72
2021/05/31 03:30:30;;;;;;;20.17;9.40;;;11.00;99.90;;;;;;4996024;28;20224;-72
2021/05/31 03:32:57;;;;;;;11.63;8.02;;;10.90;99.90;;;;;;5014770;28;20182;-72
2021/05/31 03:35:25;;;;;;;10.20;7.77;;;10.90;99.90;;;;;;5012105;28;20206;-72
2021/05/31 03:37:55;;;;;;;14.70;8.20;;;10.90;99.90;;;;;;4980532;28;20503;-72
2021/05/31 03:40:25;;;;;;;14.60;8.77;;;10.90;99.90;;;;;;4994245;28;20213;-72
2021/05/31 03:42:53;;;;;;;10.30;8.50;;;10.90;99.90;;;;;;5014382;28;20497;-72
2021/05/31 03:45:23;;;;;;;15.40;9.93;;;10.80;99.90;;;;;;4995147;28;20585;-72
2021/05/31 03:47:51;;;;;;;14.80;8.45;;;10.80;99.90;;;;;;4980508;28;20209;-72
2021/05/31 03:50:19;;;;;;;12.13;8.03;;;10.90;99.90;;;;;;4994745;28;20303;-72
2021/05/31 03:52:47;;;;;;;13.23;8.00;;;10.90;99.90;;;;;;5014105;28;20437;-72
2021/05/31 03:55:14;;;;;;;12.88;8.43;;;10.80;99.90;;;;;;4991942;28;21059;-72
2021/05/31 03:57:42;;;;;;;15.90;8.20;;;10.80;99.90;;;;;;4989188;28;20210;-72
2021/05/31 04:00:11;;;;;;;12.10;7.90;;;10.80;99.90;;;;;;4995138;28;20484;-72
2021/05/31 04:02:40;;;;;;;13.10;8.90;;;10.90;99.90;;;;;;4994628;28;20735;-72
2021/05/31 04:05:11;;;;;;;13.52;9.20;;;10.90;99.90;;;;;;5013750;28;20477;-72
2021/05/31 04:13:13;;;;;;;15.18;8.23;;;10.90;99.90;;;;;;5011048;28;20183;-72
2021/05/31 04:15:40;;;;;;;15.50;9.50;;;10.90;99.90;;;;;;4995897;28;20212;-72
2021/05/31 04:18:08;;;;;;;12.93;9.10;;;10.90;99.90;;;;;;5013084;28;20684;-72
2021/05/31 04:20:35;;;;;;;12.67;9.13;;;10.90;99.90;;;;;;4991563;28;20472;-72
2021/05/31 04:23:03;;;;;;;15.67;9.63;;;11.10;99.90;;;;;;5012590;28;20942;-72
2021/05/31 04:25:30;;;;;;;14.20;9.43;;;11.10;99.90;;;;;;5011336;28;20480;-72
2021/05/31 04:27:57;;;;;;;11.87;9.40;;;11.20;99.90;;;;;;5012859;28;20236;-72
2021/05/31 04:30:26;;;;;;;17.53;9.13;;;11.20;99.90;;;;;;5012173;28;20469;-72
2021/05/31 04:32:54;;;;;;;18.08;10.57;;;11.20;99.90;;;;;;5013592;28;20432;-72
2021/05/31 04:35:23;;;;;;;13.47;9.17;;;11.20;99.90;;;;;;5009130;28;20242;-72
2021/05/31 04:37:56;;;;;;;14.00;9.37;;;11.30;99.90;;;;;;5005074;28;21000;-72
2021/05/31 04:40:24;;;;;;;14.30;9.37;;;11.30;99.90;;;;;;4992028;28;20475;-72
2021/05/31 04:42:51;;;;;;;14.03;9.10;;;11.30;99.90;;;;;;5013210;28;20464;-72
2021/05/31 04:45:20;;;;;;;10.77;9.40;;;11.40;99.90;;;;;;4995048;28;20887;-73
2021/05/31 04:47:47;;;;;;;10.60;9.37;;;11.40;99.90;;;;;;5013001;28;20449;-72
2021/05/31 04:50:15;;;;;;;14.03;9.27;;;11.40;99.90;;;;;;5010973;28;20489;-73
2021/05/31 04:52:42;;;;;;;16.50;9.40;;;11.50;99.90;;;;;;5012831;28;20521;-72
2021/05/31 04:55:15;;;;;;;15.57;9.63;;;11.60;99.90;;;;;;5010642;28;20473;-72
2021/05/31 04:57:43;;;;;;;11.30;8.90;;;11.70;99.90;;;;;;4994702;28;20467;-72
2021/05/31 05:00:13;;;;;;;13.43;9.83;;;11.80;99.90;;;;;;4994799;28;20922;-72
2021/05/31 05:02:40;;;;;;;12.50;9.77;;;11.90;99.90;;;;;;4982355;28;20456;-72
2021/05/31 05:05:11;;;;;;;10.17;8.73;;;12.00;99.90;;;;;;5009684;28;20471;-72
2021/05/31 05:07:45;;;;;;;13.20;8.77;;;12.10;99.90;;;;;;4994886;28;20457;-72
2021/05/31 05:10:19;;;;;;;10.50;9.03;;;12.20;99.90;;;;;;4993038;28;20828;-72
2021/05/31 05:12:47;;;;;;;10.80;8.00;;;12.30;99.90;;;;;;5012745;28;20942;-73
2021/05/31 05:15:17;;;;;;;9.10;8.20;;;12.40;99.90;;;;;;4986158;28;20472;-73
2021/05/31 05:17:46;;;;;;;10.53;8.00;;;12.50;99.90;;;;;;4994876;28;20475;-73
2021/05/31 05:20:17;;;;;;;10.53;8.37;;;12.60;99.90;;;;;;4995962;28;20812;-73
2021/05/31 05:22:44;;;;;;;10.67;7.93;;;12.60;99.90;;;;;;4995119;28;20472;-73
2021/05/31 05:25:12;;;;;;;12.43;8.00;;;12.70;99.90;;;;;;5008505;28;20528;-72
2021/05/31 05:27:41;;;;;;;9.63;8.63;;;12.90;99.90;;;;;;4994429;28;20460;-72
2021/05/31 05:30:17;;;;;;;23.70;10.33;;;13.10;99.90;;;;;;5011627;28;20468;-73
2021/05/31 05:32:48;;;;;;;13.47;7.97;;;13.10;99.90;;;;;;4982113;28;20556;-73
2021/05/31 05:35:40;;;;;;;11.20;8.83;;;13.20;99.90;;;;;;5011807;28;20476;-73
2021/05/31 05:43:46;;;;;;;11.50;9.53;;;13.40;99.90;;;;;;5006432;28;20428;-73
2021/05/31 05:48:51;;;;;;;12.23;8.97;;;13.70;99.90;;;;;;4997694;28;20465;-72
2021/05/31 05:51:19;;;;;;;10.07;7.90;;;13.80;99.90;;;;;;4994391;28;20797;-73
2021/05/31 05:53:47;;;;;;;9.10;8.20;;;13.90;99.90;;;;;;5011446;28;20873;-72
2021/05/31 05:56:19;;;;;;;9.90;8.00;;;14.10;99.90;;;;;;5009747;28;20427;-72
2021/05/31 05:58:47;;;;;;;9.20;8.20;;;14.40;99.90;;;;;;5011095;28;20475;-72
2021/05/31 06:01:15;;;;;;;11.53;9.37;;;14.80;99.90;;;;;;5011380;28;20460;-73
2021/05/31 06:03:42;;;;;;;16.27;9.30;;;15.20;99.90;;;;;;5009844;28;20981;-73
2021/05/31 06:06:09;;;;;;;7.87;6.80;;;15.70;99.90;;;;;;5008552;28;20472;-70
2021/05/31 06:08:38;;;;;;;9.97;8.07;;;16.10;99.90;;;;;;5010600;28;20927;-71
2021/05/31 06:11:05;;;;;;;9.90;7.27;;;16.70;99.90;;;;;;5009951;28;20532;-71
2021/05/31 06:13:32;;;;;;;9.43;7.90;;;17.20;98.50;;;;;;5010788;28;20439;-72
2021/05/31 06:16:01;;;;;;;6.67;6.07;;;17.70;95.00;;;;;;5010274;28;20792;-71
2021/05/31 06:18:29;;;;;;;6.17;5.57;;;18.10;93.30;;;;;;5009878;28;20461;-73
2021/05/31 06:20:57;;;;;;;6.90;6.30;;;18.50;90.60;;;;;;5009839;28;20496;-72
2021/05/31 06:23:25;;;;;;;7.63;6.63;;;18.70;88.20;;;;;;5011519;28;20448;-73
2021/05/31 06:25:54;;;;;;;7.00;6.17;;;19.00;84.90;;;;;;5009085;28;20555;-73
2021/05/31 06:28:21;;;;;;;6.13;5.53;;;19.00;84.20;;;;;;4994070;28;20978;-73
2021/05/31 06:30:48;;;;;;;6.40;5.80;;;19.20;80.40;;;;;;5011379;28;20552;-73
2021/05/31 06:33:18;;;;;;;7.40;6.60;;;19.20;80.20;;;;;;5011412;28;20448;-72
2021/05/31 06:35:46;;;;;;;6.90;6.10;;;19.10;81.50;;;;;;4991825;28;20967;-72
2021/05/31 06:38:15;;;;;;;6.73;5.90;;;19.10;79.50;;;;;;4993642;28;20491;-72
2021/05/31 06:40:43;;;;;;;6.40;5.80;;;19.00;79.10;;;;;;4992097;28;20998;-72
2021/05/31 06:43:12;;;;;;;7.87;6.07;;;18.80;79.60;;;;;;4994315;28;21004;-72
2021/05/31 06:45:39;;;;;;;6.63;5.97;;;18.70;78.90;;;;;;5004802;28;20481;-72
2021/05/31 06:48:07;;;;;;;7.50;6.10;;;18.50;82.10;;;;;;5011142;28;20460;-72
2021/05/31 06:50:34;;;;;;;6.37;5.77;;;18.50;84.10;;;;;;5008992;28;20477;-72
2021/05/31 06:53:02;;;;;;;8.90;6.30;;;18.40;83.60;;;;;;5011429;28;20469;-72
2021/05/31 06:55:31;;;;;;;7.00;6.23;;;18.60;81.70;;;;;;4991630;28;20525;-72
2021/05/31 06:57:58;;;;;;;6.70;6.10;;;18.60;82.20;;;;;;5011213;28;20460;-72
2021/05/31 07:00:27;;;;;;;7.37;6.67;;;18.60;84.10;;;;;;4993533;28;20503;-72
2021/05/31 07:02:57;;;;;;;7.97;7.03;;;18.60;83.70;;;;;;4993584;28;20553;-72
2021/05/31 07:05:24;;;;;;;8.87;6.37;;;18.50;86.50;;;;;;5002587;28;20999;-72
2021/05/31 07:07:54;;;;;;;6.37;5.77;;;18.50;84.10;;;;;;5002180;28;20453;-72
2021/05/31 07:10:28;;;;;;;7.97;6.03;;;18.60;81.70;;;;;;5007765;28;20466;-72
2021/05/31 07:12:56;;;;;;;6.37;5.67;;;18.60;82.30;;;;;;5000394;28;20511;-72
2021/05/31 07:15:24;;;;;;;6.33;5.50;;;18.50;82.60;;;;;;4992959;28;20556;-72
2021/05/31 07:17:52;;;;;;;6.03;5.47;;;18.60;80.50;;;;;;4976897;28;20452;-72
2021/05/31 07:20:20;;;;;;;7.13;6.40;;;18.60;80.20;;;;;;5010845;28;20464;-72
2021/05/31 07:22:48;;;;;;;6.00;5.40;;;18.70;80.60;;;;;;5012160;28;20469;-72
2021/05/31 07:25:16;;;;;;;6.50;5.90;;;18.70;82.20;;;;;;5012487;28;20485;-72
2021/05/31 07:27:46;;;;;;;4.43;4.03;;;18.70;83.30;;;;;;4993801;28;20448;-72
2021/05/31 07:30:17;;;;;;;6.90;5.33;;;18.90;80.10;;;;;;4993649;28;20969;-72
2021/05/31 07:32:45;;;;;;;5.13;4.63;;;19.00;72.60;;;;;;4995768;28;20445;-72
2021/05/31 07:35:13;;;;;;;5.20;4.63;;;19.10;69.00;;;;;;4998938;28;21031;-72
2021/05/31 07:37:40;;;;;;;5.73;5.10;;;19.10;68.70;;;;;;5014086;28;20462;-72
2021/05/31 07:40:12;;;;;;;5.30;4.80;;;19.10;69.60;;;;;;5011747;28;20470;-72
2021/05/31 07:42:39;;;;;;;4.97;4.57;;;19.30;72.60;;;;;;5014507;28;20901;-72
2021/05/31 07:45:09;;;;;;;4.80;4.20;;;19.40;65.40;;;;;;5013982;28;20468;-72
2021/05/31 07:47:38;;;;;;;4.83;4.43;;;19.30;67.90;;;;;;5006762;28;20459;-73
2021/05/31 07:50:16;;;;;;;5.77;4.10;;;19.30;70.10;;;;;;4994528;28;20539;-72
2021/05/31 07:52:44;;;;;;;4.83;4.00;;;19.40;70.50;;;;;;4996705;28;20435;-72
2021/05/31 07:55:14;;;;;;;5.10;4.50;;;19.60;71.60;;;;;;5010300;28;20484;-72
2021/05/31 07:57:44;;;;;;;6.50;3.93;;;19.60;68.40;;;;;;4991906;28;20452;-72
2021/05/31 08:00:16;;;;;;;5.50;5.00;;;19.60;68.80;;;;;;5013361;28;20547;-72
2021/05/31 08:02:43;;;;;;;5.90;5.10;;;19.70;69.50;;;;;;5013858;28;20456;-72
2021/05/31 08:05:12;;;;;;;4.40;4.03;;;19.70;66.40;;;;;;5006103;28;20497;-72
2021/05/31 08:07:46;;;;;;;4.90;4.27;;;19.90;65.20;;;;;;5013308;28;20445;-72
2021/05/31 08:10:14;;;;;;;3.97;3.63;;;20.00;65.40;;;;;;5011377;28;20477;-72
2021/05/31 08:12:42;;;;;;;4.33;3.77;;;20.10;60.90;;;;;;4996419;28;20529;-72
2021/05/31 08:15:10;;;;;;;5.30;4.37;;;20.10;63.90;;;;;;4979548;28;20468;-72
2021/05/31 08:17:41;;;;;;;4.10;3.80;;;20.20;59.70;;;;;;5013016;28;20944;-72
2021/05/31 08:20:09;;;;;;;3.83;3.53;;;20.40;59.80;;;;;;4993350;28;20473;-72
2021/05/31 08:22:38;;;;;;;4.67;3.20;;;20.50;57.50;;;;;;5013361;28;20468;-72
2021/05/31 08:25:11;;;;;;;4.23;3.83;;;20.50;56.60;;;;;;5011585;28;20513;-72
2021/05/31 08:27:38;;;;;;;5.67;4.50;;;20.50;58.90;;;;;;5009900;28;20975;-72
2021/05/31 08:30:06;;;;;;;5.70;5.20;;;20.60;63.00;;;;;;5012567;28;20529;-73
2021/05/31 08:32:35;;;;;;;5.10;4.70;;;20.60;62.60;;;;;;5012380;28;20524;-72
2021/05/31 08:35:06;;;;;;;5.20;4.30;;;20.60;60.40;;;;;;5003692;28;20869;-72
2021/05/31 08:37:32;;;;;;;4.20;3.80;;;20.80;60.50;;;;;;4998248;28;20493;-72
2021/05/31 08:40:00;;;;;;;4.80;4.33;;;20.70;59.40;;;;;;4992912;28;20466;-72
2021/05/31 08:42:27;;;;;;;5.37;3.40;;;20.70;64.00;;;;;;5007856;28;20872;-72
2021/05/31 08:44:54;;;;;;;4.90;4.07;;;20.90;64.70;;;;;;5011413;28;20465;-72
2021/05/31 08:47:22;;;;;;;4.87;4.43;;;21.00;60.50;;;;;;4992183;28;20466;-72
2021/05/31 08:49:53;;;;;;;5.63;4.73;;;21.00;61.80;;;;;;4992849;28;20533;-72
2021/05/31 08:52:20;;;;;;;6.70;4.63;;;21.00;59.30;;;;;;4995897;28;20487;-72
2021/05/31 08:54:47;;;;;;;5.17;4.67;;;21.10;60.10;;;;;;4994671;28;21054;-72
2021/05/31 08:57:14;;;;;;;4.83;4.40;;;21.30;58.20;;;;;;5011140;28;20463;-72
2021/05/31 08:59:41;;;;;;;4.53;4.13;;;21.40;58.40;;;;;;5012237;28;20488;-72
2021/05/31 09:02:09;;;;;;;4.70;4.30;;;21.40;58.90;;;;;;5011849;28;20461;-72
2021/05/31 09:04:47;;;;;;;5.63;5.13;;;21.40;59.00;;;;;;5007336;28;20468;-72
2021/05/31 09:07:14;;;;;;;4.93;4.40;;;21.40;57.80;;;;;;4995060;28;20513;-72
2021/05/31 09:09:43;;;;;;;4.43;4.10;;;21.40;57.20;;;;;;5011110;28;20481;-72
2021/05/31 09:12:12;;;;;;;5.73;5.13;;;21.40;57.50;;;;;;4992944;28;20444;-72
2021/05/31 09:14:42;;;;;;;4.63;4.27;;;21.50;59.70;;;;;;5003148;28;20908;-72
2021/05/31 09:17:27;;;;;;;7.40;5.70;;;21.70;61.10;;;;;;5008935;28;20452;-72
2021/05/31 09:19:55;;;;;;;7.77;6.13;;;21.70;59.40;;;;;;4990574;28;20557;-72
2021/05/31 09:22:24;;;;;;;6.30;5.50;;;21.80;58.50;;;;;;5002911;28;21086;-72
2021/05/31 09:25:02;;;;;;;6.20;4.80;;;21.80;56.70;;;;;;4994196;28;20509;-72
2021/05/31 09:27:30;;;;;;;5.37;4.20;;;22.10;58.60;;;;;;5010844;28;20449;-72
2021/05/31 09:30:15;;;;;;;6.07;5.37;;;22.10;57.00;;;;;;5010614;28;20472;-72
2021/05/31 09:32:52;;;;;;;5.90;4.50;;;22.00;57.90;;;;;;4993188;28;20422;-72
2021/05/31 09:35:23;;;;;;;4.93;4.40;;;22.10;56.00;;;;;;4993263;28;20556;-72
2021/05/31 09:37:51;;;;;;;5.50;4.90;;;22.00;55.70;;;;;;5011588;28;20453;-72
2021/05/31 09:40:23;;;;;;;6.20;5.07;;;22.10;58.70;;;;;;4991034;28;20461;-72
2021/05/31 09:42:53;;;;;;;4.93;4.40;;;22.10;57.10;;;;;;5011753;28;20512;-72
2021/05/31 09:45:20;;;;;;;4.50;4.13;;;22.20;57.20;;;;;;5011443;28;20473;-72
2021/05/31 09:47:48;;;;;;;5.30;4.73;;;22.30;58.30;;;;;;4993028;28;20481;-72
2021/05/31 09:50:28;;;;;;;6.30;5.20;;;22.30;59.10;;;;;;4973947;28;20549;-73
2021/05/31 09:53:02;;;;;;;5.50;4.57;;;22.30;56.70;;;;;;5010796;28;20951;-72
2021/05/31 09:55:34;;;;;;;5.00;4.50;;;22.40;57.00;;;;;;5010055;28;20514;-73
2021/05/31 09:58:06;;;;;;;5.27;4.87;;;22.40;55.70;;;;;;4994015;28;21023;-72
2021/05/31 10:00:33;;;;;;;5.13;4.73;;;22.40;56.20;;;;;;5011425;28;20537;-72
2021/05/31 10:03:23;;;;;;;6.20;5.60;;;22.40;56.40;;;;;;5011055;28;20460;-72
2021/05/31 10:06:18;;;;;;;6.20;5.60;;;22.30;53.50;;;;;;4992944;28;20469;-72
2021/05/31 10:08:45;;;;;;;8.53;4.90;;;22.40;52.30;;;;;;4985534;28;20453;-72
2021/05/31 10:11:14;;;;;;;7.50;5.30;;;22.40;56.10;;;;;;4997051;28;20555;-72
2021/05/31 10:13:43;;;;;;;5.90;5.17;;;22.30;53.60;;;;;;4992962;28;20425;-72
2021/05/31 10:16:13;;;;;;;5.77;5.27;;;22.30;57.00;;;;;;5011882;28;20440;-72
2021/05/31 10:18:41;;;;;;;9.53;4.60;;;22.50;56.30;;;;;;5011499;28;20458;-72
2021/05/31 10:21:13;;;;;;;5.77;4.90;;;22.70;60.60;;;;;;5010011;28;20485;-72
2021/05/31 10:23:40;;;;;;;6.47;4.40;;;22.80;53.50;;;;;;5011162;28;20894;-72
2021/05/31 10:26:11;;;;;;;6.97;4.83;;;22.80;55.80;;;;;;4992657;28;20462;-72
2021/05/31 10:28:42;;;;;;;9.20;5.60;;;22.90;54.50;;;;;;4978849;28;21042;-72
2021/05/31 10:31:11;;;;;;;6.73;6.23;;;23.10;52.90;;;;;;5010570;28;20546;-72
2021/05/31 10:33:39;;;;;;;7.90;6.30;;;23.00;50.40;;;;;;5007028;28;20445;-72
2021/05/31 10:36:19;;;;;;;7.43;6.20;;;22.90;84.20;;;;;;4979655;28;20464;-72
2021/05/31 10:38:48;;;;;;;7.13;6.43;;;22.90;90.40;;;;;;4996870;28;20985;-72
2021/05/31 10:41:21;;;;;;;6.90;6.20;;;22.90;91.50;;;;;;4991308;28;20866;-72
2021/05/31 10:43:53;;;;;;;8.10;6.10;;;23.20;91.40;;;;;;4991458;28;20553;-73
2021/05/31 10:46:27;;;;;;;8.07;6.37;;;23.10;92.20;;;;;;4977959;28;20579;-72
2021/05/31 10:48:55;;;;;;;7.73;6.93;;;23.10;92.30;;;;;;4999042;28;20451;-72
2021/05/31 10:51:25;;;;;;;7.97;7.17;;;;;;;;;;5005743;28;20437;-72
2021/05/31 10:53:53;;;;;;;8.33;6.83;;;;;;;;;;5011060;28;20454;-72
2021/05/31 10:56:25;;;;;;;8.60;6.83;;;23.60;51.70;;;;;;4981915;28;20477;-72
2021/05/31 10:58:59;;;;;;;8.07;6.77;;;23.80;52.90;;;;;;4982882;28;20461;-72
2021/05/31 11:01:26;;;;;;;7.40;6.70;;;23.70;51.30;;;;;;5012409;28;20482;-72
2021/05/31 11:04:04;;;;;;;7.20;5.60;;;23.60;47.90;;;;;;5011766;28;20466;-72
2021/05/31 11:06:42;;;;;;;7.40;6.57;;;23.60;54.80;;;;;;5013007;28;20470;-72
2021/05/31 11:09:12;;;;;;;6.03;5.43;;;23.50;52.00;;;;;;4989885;28;20458;-72
2021/05/31 11:11:47;;;;;;;6.70;6.00;;;23.50;50.50;;;;;;4996236;28;20861;-72
2021/05/31 11:14:16;;;;;;;7.47;6.80;;;23.50;52.90;;;;;;4996578;28;20528;-72
2021/05/31 11:16:51;;;;;;;7.80;6.40;;;23.70;51.80;;;;;;4997156;28;20867;-72
2021/05/31 11:19:35;;;;;;;6.90;6.27;;;23.80;50.00;;;;;;5011065;28;21003;-72
2021/05/31 11:22:21;;;;;;;7.83;6.07;;;23.90;50.60;;;;;;5013358;28;20455;-72
2021/05/31 11:24:57;;;;;;;8.30;6.87;;;23.90;50.00;;;;;;4986265;28;20475;-72
2021/05/31 11:27:30;;;;;;;6.27;5.60;;;24.00;49.70;;;;;;4977965;28;20460;-72
2021/05/31 11:29:59;;;;;;;10.00;8.43;;;23.90;49.20;;;;;;4996249;28;21805;-72
2021/05/31 11:32:27;;;;;;;7.83;7.03;;;23.70;48.10;;;;;;5013881;28;20432;-72
2021/05/31 11:35:06;;;;;;;8.07;7.03;;;23.60;48.60;;;;;;4994720;28;20511;-72
2021/05/31 11:37:54;;;;;;;8.57;6.90;;;23.60;49.40;;;;;;5013930;28;20769;-72
2021/05/31 11:40:29;;;;;;;6.80;6.10;;;23.60;47.90;;;;;;4989872;28;20519;-72
2021/05/31 11:42:58;;;;;;;6.03;5.50;;;23.70;48.20;;;;;;5008675;28;20469;-72
2021/05/31 11:45:27;;;;;;;7.40;6.73;;;24.10;47.90;;;;;;5013834;28;20468;-72
2021/05/31 11:47:59;;;;;;;7.00;6.30;;;24.20;50.90;;;;;;5013774;28;20826;-72
2021/05/31 11:50:28;;;;;;;6.90;6.20;;;24.40;49.20;;;;;;5010191;28;20463;-72
2021/05/31 11:52:55;;;;;;;6.73;6.13;;;24.60;47.90;;;;;;5013844;28;20988;-76
2021/05/31 11:55:28;;;;;;;8.17;6.20;;;24.60;47.50;;;;;;5010971;28;20496;-77
2021/05/31 11:57:56;;;;;;;8.43;7.40;;;24.50;46.70;;;;;;5013838;28;20826;-77
2021/05/31 12:00:25;;;;;;;7.77;6.90;;;24.60;47.80;;;;;;5013261;28;20460;-76
2021/05/31 12:02:53;;;;;;;8.93;7.47;;;24.70;48.10;;;;;;4996547;28;20514;-76
2021/05/31 12:05:35;;;;;;;7.83;7.13;;;24.70;45.90;;;;;;4988716;28;20482;-77
2021/05/31 12:08:08;;;;;;;8.77;7.10;;;24.60;47.00;;;;;;4995870;28;20501;-78
2021/05/31 12:10:35;;;;;;;11.00;6.80;;;24.60;45.00;;;;;;4993843;28;20476;-76
2021/05/31 12:13:02;;;;;;;7.63;6.33;;;24.70;46.70;;;;;;5013737;28;20472;-78
2021/05/31 12:15:29;;;;;;;8.20;6.60;;;24.80;49.10;;;;;;4995345;28;20467;-77
2021/05/31 12:17:56;;;;;;;6.83;6.13;;;24.70;47.00;;;;;;5013348;28;20552;-78
2021/05/31 12:20:30;;;;;;;7.50;6.80;;;24.60;46.30;;;;;;4987665;28;20560;-78
2021/05/31 12:22:57;;;;;;;7.47;6.77;;;24.60;44.50;;;;;;5013907;28;21037;-77
2021/05/31 12:25:24;;;;;;;8.70;6.80;;;24.50;46.70;;;;;;5005708;28;20909;-78
2021/05/31 12:27:52;;;;;;;6.97;5.90;;;24.30;46.70;;;;;;4970999;28;20538;-77
2021/05/31 12:30:19;;;;;;;7.10;6.37;;;24.10;45.80;;;;;;5002480;28;20559;-72
2021/05/31 12:32:46;;;;;;;10.07;7.37;;;24.10;48.60;;;;;;4997106;28;20438;-72
2021/05/31 12:35:13;;;;;;;5.93;5.33;;;24.10;48.70;;;;;;4996281;28;20528;-71
2021/05/31 12:37:47;;;;;;;7.57;6.83;;;24.10;53.00;;;;;;5003973;28;20458;-72
2021/05/31 12:40:19;;;;;;;8.27;7.47;;;24.10;52.20;;;;;;4979926;28;20992;-71
2021/05/31 12:42:48;;;;;;;8.33;6.90;;;24.10;51.60;;;;;;5010940;28;20951;-71
2021/05/31 12:45:19;;;;;;;7.90;5.77;;;24.20;48.90;;;;;;5001012;28;20465;-71
2021/05/31 12:47:49;;;;;;;6.60;5.93;;;24.40;45.30;;;;;;4995606;28;20521;-71
2021/05/31 12:50:32;;;;;;;7.10;5.80;;;24.40;46.30;;;;;;5001472;28;20466;-71
2021/05/31 12:53:11;;;;;;;6.90;6.33;;;24.50;46.80;;;;;;5013017;28;20524;-71
2021/05/31 12:55:41;;;;;;;6.30;5.70;;;24.50;46.90;;;;;;4994619;28;20481;-71
2021/05/31 12:58:23;;;;;;;7.73;6.33;;;24.40;46.70;;;;;;5012707;28;20441;-71
2021/05/31 13:00:50;;;;;;;7.80;7.07;;;24.30;44.70;;;;;;4994635;28;21053;-72
2021/05/31 13:03:20;;;;;;;8.13;6.67;;;24.20;46.20;;;;;;5009740;28;20464;-71
2021/05/31 13:05:49;;;;;;;6.70;6.00;;;24.20;46.70;;;;;;5012026;28;20472;-71
2021/05/31 13:08:18;;;;;;;11.50;6.57;;;24.00;49.80;;;;;;5012476;28;20488;-72
2021/05/31 13:10:55;;;;;;;7.03;6.50;;;24.00;47.50;;;;;;5010373;28;20480;-71
2021/05/31 13:13:37;;;;;;;6.73;6.13;;;24.00;47.60;;;;;;5012153;28;20495;-72